Time;durP1;ratioP1;P1;durP2;ratioP2;P2;SDS_P1;SDS_P2;PMS_P1;PMS_P2;Temp;Humidity;BMP_temperature;BMP_pressure;BME280_temperature;BME280_humidity;BME280_pressure;Samples;Min_cycle;Max_cycle;Signal;HPM_P1;HPM_P2
2023/05/21 00:00:10;;;;;;;15.50;11.10;;;14.20;99.90;;;;;;5012827;28;20018;-74
2023/05/21 00:02:37;;;;;;;18.73;11.70;;;14.20;99.90;;;;;;5029395;28;20025;-75
2023/05/21 00:05:02;;;;;;;16.70;12.17;;;14.20;99.90;;;;;;5029045;28;20030;-74
2023/05/21 00:07:30;;;;;;;16.90;11.63;;;14.20;99.90;;;;;;5013787;28;20022;-75
2023/05/21 00:09:58;;;;;;;19.77;13.33;;;14.20;99.90;;;;;;5013449;28;20077;-74
2023/05/21 00:12:31;;;;;;;19.43;12.93;;;14.20;99.90;;;;;;5029957;28;20048;-75
2023/05/21 00:14:57;;;;;;;20.38;12.38;;;14.10;99.90;;;;;;5016428;28;20028;-75
2023/05/21 00:17:25;;;;;;;19.43;13.07;;;14.10;99.90;;;;;;5013625;28;20049;-75
2023/05/21 00:19:51;;;;;;;16.30;11.97;;;14.10;99.90;;;;;;5013393;28;20038;-75
2023/05/21 00:22:19;;;;;;;18.50;12.73;;;14.10;99.90;;;;;;5012287;28;20014;-74
2023/05/21 00:24:45;;;;;;;20.33;13.47;;;14.10;99.90;;;;;;5031101;28;20045;-74
2023/05/21 00:27:11;;;;;;;20.03;12.53;;;14.00;99.90;;;;;;5028573;28;20045;-75
2023/05/21 00:29:37;;;;;;;18.70;12.00;;;14.00;99.90;;;;;;5013402;28;20037;-75
2023/05/21 00:32:03;;;;;;;18.57;12.17;;;14.00;99.90;;;;;;5014368;28;20018;-75
2023/05/21 00:34:29;;;;;;;20.57;13.63;;;14.00;99.90;;;;;;5012662;28;20041;-74
2023/05/21 00:36:54;;;;;;;17.53;12.87;;;14.00;99.90;;;;;;5012435;28;20022;-75
2023/05/21 00:39:22;;;;;;;18.50;12.63;;;13.90;99.90;;;;;;5024689;28;20038;-74
2023/05/21 00:41:48;;;;;;;18.43;12.30;;;13.90;99.90;;;;;;5015245;28;20041;-76
2023/05/21 00:44:18;;;;;;;19.70;13.00;;;13.90;99.90;;;;;;5012943;28;20018;-75
2023/05/21 00:46:43;;;;;;;20.47;12.90;;;13.90;99.90;;;;;;5015387;28;20032;-75
2023/05/21 00:49:13;;;;;;;18.27;12.73;;;13.80;99.90;;;;;;5014282;28;20034;-74
2023/05/21 00:51:39;;;;;;;18.07;12.60;;;13.80;99.90;;;;;;5012867;28;20049;-75
2023/05/21 00:54:05;;;;;;;20.07;13.07;;;13.80;99.90;;;;;;5013958;28;20034;-75
2023/05/21 00:56:31;;;;;;;16.47;11.70;;;13.80;99.90;;;;;;5022990;28;20053;-75
2023/05/21 00:58:58;;;;;;;19.47;12.97;;;13.80;99.90;;;;;;5012125;28;20026;-74
2023/05/21 01:01:26;;;;;;;17.83;12.50;;;13.80;99.90;;;;;;5011903;28;20021;-75
2023/05/21 01:03:56;;;;;;;19.50;13.40;;;13.80;99.90;;;;;;5013977;28;20018;-75
2023/05/21 01:06:22;;;;;;;16.73;12.47;;;13.80;99.90;;;;;;5013427;28;20026;-75
2023/05/21 01:08:50;;;;;;;18.93;12.13;;;13.80;99.90;;;;;;5013329;28;20065;-75
2023/05/21 01:11:17;;;;;;;19.97;12.30;;;13.80;99.90;;;;;;5015176;28;20094;-74
2023/05/21 01:13:43;;;;;;;21.97;12.73;;;13.70;99.90;;;;;;5014232;28;20015;-76
2023/05/21 01:16:12;;;;;;;19.10;11.93;;;13.70;99.90;;;;;;5011887;28;20141;-74
2023/05/21 01:18:38;;;;;;;22.60;13.10;;;13.70;99.90;;;;;;5028981;28;20038;-74
2023/05/21 01:21:06;;;;;;;16.60;11.33;;;13.70;99.90;;;;;;5013425;28;20107;-75
2023/05/21 01:23:32;;;;;;;18.23;11.70;;;13.70;99.90;;;;;;5014056;28;20025;-74
2023/05/21 01:25:58;;;;;;;19.00;12.07;;;13.70;99.90;;;;;;5028892;28;20028;-74
2023/05/21 01:28:23;;;;;;;16.83;12.47;;;13.70;99.90;;;;;;5027163;28;20090;-75
2023/05/21 01:30:49;;;;;;;17.53;11.97;;;13.70;99.90;;;;;;5014227;28;20077;-75
2023/05/21 01:33:15;;;;;;;19.20;12.13;;;13.70;99.90;;;;;;5011976;28;20026;-75
2023/05/21 01:35:49;;;;;;;16.07;11.77;;;13.70;99.90;;;;;;5023553;28;20018;-74
2023/05/21 01:38:55;;;;;;;17.07;12.47;;;13.70;99.90;;;;;;5028393;28;20030;-74
2023/05/21 01:41:22;;;;;;;15.80;11.43;;;13.70;99.90;;;;;;4982458;28;20094;-74
2023/05/21 01:43:51;;;;;;;17.77;11.57;;;13.70;99.90;;;;;;5009125;28;20026;-74
2023/05/21 01:46:19;;;;;;;20.13;11.87;;;13.70;99.90;;;;;;5026431;28;20081;-75
2023/05/21 01:48:46;;;;;;;15.77;11.40;;;13.70;99.90;;;;;;5012537;28;20045;-75
2023/05/21 01:51:13;;;;;;;15.77;11.03;;;13.70;99.90;;;;;;5013132;28;20056;-74
2023/05/21 01:53:39;;;;;;;13.60;10.03;;;13.70;99.90;;;;;;5010880;28;20104;-74
2023/05/21 01:56:06;;;;;;;15.73;11.43;;;13.70;99.90;;;;;;5011918;28;20029;-74
2023/05/21 01:58:31;;;;;;;17.20;11.30;;;13.70;99.90;;;;;;5011838;28;20017;-74
2023/05/21 02:00:57;;;;;;;16.93;10.50;;;13.70;99.90;;;;;;5010014;28;20029;-73
2023/05/21 02:03:25;;;;;;;18.93;10.80;;;13.60;99.90;;;;;;5011380;28;20015;-74
2023/05/21 02:05:51;;;;;;;15.33;10.10;;;13.60;99.90;;;;;;5010975;28;20018;-74
2023/05/21 02:08:22;;;;;;;16.50;10.03;;;13.60;99.90;;;;;;5026936;28;20030;-73
2023/05/21 02:10:50;;;;;;;14.27;9.67;;;13.60;99.90;;;;;;5012754;28;20034;-74
2023/05/21 02:13:19;;;;;;;14.80;10.17;;;13.60;99.90;;;;;;5009458;28;20036;-76
2023/05/21 02:15:46;;;;;;;14.80;10.27;;;13.60;99.90;;;;;;5024499;28;20177;-74
2023/05/21 02:18:15;;;;;;;18.27;11.03;;;13.50;99.90;;;;;;5012180;28;20207;-74
2023/05/21 02:20:41;;;;;;;16.70;10.80;;;13.60;99.90;;;;;;5011290;28;20023;-73
2023/05/21 02:23:07;;;;;;;14.63;10.13;;;13.50;99.90;;;;;;5028720;28;20018;-75
2023/05/21 02:25:33;;;;;;;16.10;10.20;;;13.50;99.90;;;;;;5011316;28;20024;-74
2023/05/21 02:28:01;;;;;;;17.50;10.10;;;13.50;99.90;;;;;;5009890;28;20261;-75
2023/05/21 02:30:26;;;;;;;16.30;10.33;;;13.50;99.90;;;;;;5011126;28;20030;-73
2023/05/21 02:32:52;;;;;;;14.07;10.10;;;13.50;99.90;;;;;;5006446;28;20102;-74
2023/05/21 02:35:18;;;;;;;13.00;9.47;;;13.40;99.90;;;;;;5008569;28;20018;-75
2023/05/21 02:37:44;;;;;;;15.73;9.53;;;13.40;99.90;;;;;;5011822;28;20036;-74
2023/05/21 02:40:10;;;;;;;15.60;10.13;;;13.40;99.90;;;;;;5011059;28;20034;-75
2023/05/21 02:42:38;;;;;;;14.73;9.77;;;13.40;99.90;;;;;;5011417;28;20044;-76
2023/05/21 02:45:07;;;;;;;15.73;9.90;;;13.40;99.90;;;;;;5029865;28;20045;-75
2023/05/21 02:47:39;;;;;;;15.33;9.87;;;13.40;99.90;;;;;;5011334;28;20014;-74
2023/05/21 02:50:06;;;;;;;13.93;9.43;;;13.40;99.90;;;;;;5011567;28;20106;-75
2023/05/21 02:52:32;;;;;;;13.33;9.60;;;13.40;99.90;;;;;;5026623;28;20089;-75
2023/05/21 02:54:57;;;;;;;13.73;9.20;;;13.30;99.90;;;;;;5008296;28;20023;-74
2023/05/21 02:57:23;;;;;;;14.50;10.37;;;13.30;99.90;;;;;;5008612;28;20049;-74
2023/05/21 02:59:48;;;;;;;13.53;10.40;;;13.30;99.90;;;;;;5011103;28;20038;-77
2023/05/21 03:02:15;;;;;;;13.63;9.43;;;13.30;99.90;;;;;;5011754;28;20118;-74
2023/05/21 03:04:45;;;;;;;13.07;9.47;;;13.30;99.90;;;;;;5011664;28;20072;-74
2023/05/21 03:07:12;;;;;;;14.07;9.57;;;13.30;99.90;;;;;;5011107;28;20029;-73
2023/05/21 03:09:40;;;;;;;19.30;10.47;;;13.30;99.90;;;;;;5026083;28;20038;-74
2023/05/21 03:12:06;;;;;;;17.17;10.33;;;13.30;99.90;;;;;;5009982;28;20026;-74
2023/05/21 03:14:32;;;;;;;15.43;9.53;;;13.30;99.90;;;;;;5008550;28;20038;-75
2023/05/21 03:16:58;;;;;;;17.87;10.03;;;13.20;99.90;;;;;;5008650;28;20026;-74
2023/05/21 03:19:23;;;;;;;13.67;9.90;;;13.20;99.90;;;;;;5008987;28;20026;-75
2023/05/21 03:21:52;;;;;;;15.40;9.97;;;13.20;99.90;;;;;;5027007;28;20037;-74
2023/05/21 03:24:18;;;;;;;14.83;9.73;;;13.20;99.90;;;;;;5011409;28;20030;-76
2023/05/21 03:26:43;;;;;;;14.73;10.37;;;13.20;99.90;;;;;;5010575;28;20041;-74
2023/05/21 03:29:09;;;;;;;17.23;9.97;;;13.20;99.90;;;;;;5009226;28;20029;-74
2023/05/21 03:31:35;;;;;;;15.87;10.33;;;13.20;99.90;;;;;;5009097;28;20025;-75
2023/05/21 03:34:00;;;;;;;13.80;10.10;;;13.10;99.90;;;;;;5013312;28;20022;-75
2023/05/21 03:36:28;;;;;;;17.03;10.50;;;13.20;99.90;;;;;;5027791;28;20041;-75
2023/05/21 03:38:54;;;;;;;16.57;9.83;;;13.10;99.90;;;;;;5016018;28;20037;-74
2023/05/21 03:41:22;;;;;;;13.63;9.47;;;13.30;99.90;;;;;;5015576;28;20018;-74
2023/05/21 03:43:50;;;;;;;14.93;9.83;;;13.10;99.90;;;;;;5011453;28;20045;-74
2023/05/21 03:46:17;;;;;;;14.53;9.90;;;13.10;99.90;;;;;;5014597;28;20018;-74
2023/05/21 03:48:43;;;;;;;14.97;9.93;;;13.10;99.90;;;;;;5012894;28;20085;-74
2023/05/21 03:51:08;;;;;;;16.73;9.93;;;13.10;99.90;;;;;;5030735;28;20033;-75
2023/05/21 03:53:34;;;;;;;15.03;10.33;;;13.10;99.90;;;;;;5011881;28;20022;-75
2023/05/21 03:56:00;;;;;;;13.77;9.60;;;13.00;99.90;;;;;;5015080;28;20042;-75
2023/05/21 03:58:30;;;;;;;13.47;9.30;;;13.00;99.90;;;;;;5012806;28;21073;-74
2023/05/21 04:01:00;;;;;;;18.20;10.80;;;13.10;99.90;;;;;;5015685;28;20030;-74
2023/05/21 04:03:28;;;;;;;17.07;9.70;;;13.10;99.90;;;;;;5013886;28;20021;-74
2023/05/21 04:05:56;;;;;;;14.37;10.93;;;13.10;99.90;;;;;;5014562;28;20037;-74
2023/05/21 04:08:22;;;;;;;13.60;10.00;;;13.10;99.90;;;;;;5029106;28;20045;-74
2023/05/21 04:10:49;;;;;;;14.50;9.80;;;13.10;99.90;;;;;;5014516;28;20038;-74
2023/05/21 04:13:15;;;;;;;16.30;9.97;;;13.10;99.90;;;;;;5028914;28;20022;-74
2023/05/21 04:15:45;;;;;;;13.50;10.17;;;13.10;99.90;;;;;;5031114;28;20030;-74
2023/05/21 04:18:12;;;;;;;13.80;10.97;;;13.10;99.90;;;;;;5016163;28;20014;-75
2023/05/21 04:20:40;;;;;;;15.77;10.17;;;13.10;99.90;;;;;;5025960;28;20025;-74
2023/05/21 04:23:06;;;;;;;18.47;9.90;;;13.10;99.90;;;;;;5015376;28;20026;-74
2023/05/21 04:25:32;;;;;;;14.03;10.20;;;13.10;99.90;;;;;;5015668;28;20018;-75
2023/05/21 04:27:58;;;;;;;14.40;10.33;;;13.10;99.90;;;;;;5015683;28;20034;-74
2023/05/21 04:30:23;;;;;;;14.50;9.27;;;13.20;99.90;;;;;;5012566;28;20049;-74
2023/05/21 04:32:51;;;;;;;13.90;9.97;;;13.20;99.90;;;;;;5014485;28;20034;-75
2023/05/21 04:35:17;;;;;;;15.17;10.40;;;13.20;99.90;;;;;;5011717;28;20383;-74
2023/05/21 04:37:44;;;;;;;15.37;11.03;;;13.20;99.90;;;;;;5014722;28;20025;-74
2023/05/21 04:40:17;;;;;;;18.23;10.33;;;13.20;99.90;;;;;;5013448;28;20102;-74
2023/05/21 04:42:45;;;;;;;14.60;10.38;;;13.20;99.90;;;;;;5013861;28;20053;-75
2023/05/21 04:45:11;;;;;;;14.03;10.00;;;13.20;99.90;;;;;;5011698;28;20113;-77
2023/05/21 04:47:37;;;;;;;15.73;10.50;;;13.20;99.90;;;;;;5015064;28;20034;-74
2023/05/21 04:50:09;;;;;;;13.87;10.17;;;13.20;99.90;;;;;;5030701;28;20053;-74
2023/05/21 04:52:35;;;;;;;14.43;10.63;;;13.20;99.90;;;;;;5015248;28;20026;-75
2023/05/21 04:55:01;;;;;;;13.50;10.83;;;13.20;99.90;;;;;;5012570;28;20022;-75
2023/05/21 04:57:28;;;;;;;15.73;10.03;;;13.30;99.90;;;;;;5029007;28;20042;-75
2023/05/21 04:59:56;;;;;;;14.63;9.70;;;13.30;99.90;;;;;;5010783;28;20048;-74
2023/05/21 05:02:22;;;;;;;13.63;10.40;;;13.30;99.90;;;;;;5029475;28;20069;-75
2023/05/21 05:04:47;;;;;;;14.13;10.00;;;13.30;99.90;;;;;;5011625;28;20053;-74
2023/05/21 05:07:15;;;;;;;16.03;11.10;;;13.30;99.90;;;;;;5028818;28;21155;-76
2023/05/21 05:09:41;;;;;;;15.57;11.53;;;13.40;99.90;;;;;;5029957;28;20034;-76
2023/05/21 05:12:06;;;;;;;16.83;10.77;;;13.40;99.90;;;;;;5013194;28;20033;-75
2023/05/21 05:14:35;;;;;;;13.17;10.07;;;13.40;99.90;;;;;;5014629;28;20026;-76
2023/05/21 05:17:01;;;;;;;13.67;10.60;;;13.40;99.90;;;;;;5011710;28;20018;-75
2023/05/21 05:19:26;;;;;;;15.03;10.63;;;13.50;99.90;;;;;;5029866;28;20085;-76
2023/05/21 05:21:53;;;;;;;16.33;10.70;;;13.50;99.90;;;;;;5011215;28;20034;-76
2023/05/21 05:24:18;;;;;;;19.20;11.33;;;13.60;99.90;;;;;;5027188;28;20037;-76
2023/05/21 05:26:46;;;;;;;14.20;9.70;;;13.60;99.90;;;;;;5011328;28;20018;-76
2023/05/21 05:29:15;;;;;;;16.07;11.17;;;13.60;99.90;;;;;;5011470;28;20034;-75
2023/05/21 05:31:43;;;;;;;15.93;11.07;;;13.60;99.90;;;;;;5013249;28;21085;-75
2023/05/21 05:34:08;;;;;;;17.97;11.77;;;13.70;99.90;;;;;;5009475;28;21004;-75
2023/05/21 05:36:34;;;;;;;18.13;11.07;;;13.70;99.90;;;;;;5009352;28;20029;-75
2023/05/21 05:38:59;;;;;;;12.53;10.37;;;13.80;99.90;;;;;;5010191;28;20038;-74
2023/05/21 05:41:27;;;;;;;14.50;10.43;;;13.80;99.90;;;;;;5026861;28;20029;-76
2023/05/21 05:43:53;;;;;;;15.93;10.70;;;13.80;99.90;;;;;;5010854;28;20011;-75
2023/05/21 05:46:18;;;;;;;13.90;10.37;;;13.80;99.90;;;;;;5010479;28;20053;-75
2023/05/21 05:48:46;;;;;;;13.80;9.80;;;13.90;99.90;;;;;;5008891;28;20086;-75
2023/05/21 05:51:14;;;;;;;15.90;9.87;;;13.90;99.90;;;;;;5025682;28;20053;-74
2023/05/21 05:53:41;;;;;;;14.20;9.93;;;14.00;99.90;;;;;;5010404;28;20030;-75
2023/05/21 05:56:07;;;;;;;13.37;10.03;;;14.00;99.90;;;;;;5010214;28;20033;-75
2023/05/21 05:58:35;;;;;;;16.23;10.00;;;14.00;99.90;;;;;;5008804;28;20034;-75
2023/05/21 06:01:00;;;;;;;14.03;9.07;;;14.10;99.90;;;;;;5026730;28;20015;-74
2023/05/21 06:03:27;;;;;;;10.70;9.17;;;14.10;99.90;;;;;;5007782;28;20007;-76
2023/05/21 06:05:56;;;;;;;15.40;9.95;;;14.20;99.90;;;;;;5009941;28;20035;-76
2023/05/21 06:08:22;;;;;;;14.83;9.77;;;14.30;99.90;;;;;;5025311;28;20110;-75
2023/05/21 06:10:47;;;;;;;15.70;9.57;;;14.20;99.90;;;;;;5010304;28;20048;-75
2023/05/21 06:13:13;;;;;;;15.27;9.23;;;14.20;99.90;;;;;;5010145;28;20033;-75
2023/05/21 06:15:41;;;;;;;15.47;10.47;;;14.20;99.90;;;;;;5026119;28;20022;-75
2023/05/21 06:18:07;;;;;;;13.17;9.20;;;14.20;99.90;;;;;;5025786;28;20022;-75
2023/05/21 06:20:33;;;;;;;12.50;9.80;;;14.20;99.90;;;;;;5007918;28;20057;-76
2023/05/21 06:22:58;;;;;;;13.23;9.90;;;14.20;99.90;;;;;;5007095;28;20018;-75
2023/05/21 06:25:24;;;;;;;21.52;11.00;;;14.30;99.90;;;;;;5010938;28;20017;-76
2023/05/21 06:27:52;;;;;;;15.00;9.30;;;14.20;99.90;;;;;;5009505;28;20017;-75
2023/05/21 06:30:22;;;;;;;13.93;9.87;;;14.30;99.90;;;;;;5026671;28;20102;-75
2023/05/21 06:32:48;;;;;;;22.27;9.97;;;14.30;99.90;;;;;;5026081;28;20085;-75
2023/05/21 06:35:13;;;;;;;12.83;9.57;;;14.30;99.90;;;;;;5009216;28;20013;-74
2023/05/21 06:37:39;;;;;;;13.00;10.20;;;14.40;99.90;;;;;;5013072;28;20026;-75
2023/05/21 06:40:06;;;;;;;13.73;10.55;;;14.40;99.90;;;;;;5024948;28;20030;-75
2023/05/21 06:42:32;;;;;;;13.75;9.75;;;14.50;99.90;;;;;;5008251;28;20026;-74
2023/05/21 06:44:58;;;;;;;16.95;10.23;;;14.60;99.90;;;;;;5008554;28;20053;-75
2023/05/21 06:47:26;;;;;;;13.55;10.82;;;14.60;99.90;;;;;;5007675;28;20041;-75
2023/05/21 06:49:52;;;;;;;14.05;9.80;;;14.60;99.90;;;;;;5026118;28;20030;-75
2023/05/21 06:52:19;;;;;;;15.07;10.32;;;14.70;99.90;;;;;;5008970;28;20022;-75
2023/05/21 06:54:45;;;;;;;14.07;10.25;;;14.70;99.90;;;;;;5007573;28;20030;-75
2023/05/21 06:57:11;;;;;;;14.82;9.98;;;14.70;99.90;;;;;;5023111;28;20070;-76
2023/05/21 06:59:36;;;;;;;16.17;10.38;;;14.80;99.90;;;;;;5008680;28;20030;-76
2023/05/21 07:02:04;;;;;;;14.80;11.15;;;14.80;99.90;;;;;;5024593;28;20045;-75
2023/05/21 07:04:30;;;;;;;15.45;10.05;;;14.80;99.90;;;;;;5007560;28;20038;-76
2023/05/21 07:06:55;;;;;;;14.18;10.82;;;14.80;99.90;;;;;;5025518;28;20027;-75
2023/05/21 07:09:21;;;;;;;14.65;9.68;;;14.90;99.90;;;;;;5023324;28;20122;-75
2023/05/21 07:11:50;;;;;;;13.43;10.30;;;14.90;99.90;;;;;;5010736;28;20021;-75
2023/05/21 07:14:16;;;;;;;15.77;11.50;;;14.90;99.90;;;;;;5012918;28;20022;-75
2023/05/21 07:16:41;;;;;;;18.92;10.82;;;15.00;99.90;;;;;;5013713;28;20017;-75
2023/05/21 07:19:09;;;;;;;13.85;9.75;;;15.00;99.90;;;;;;5029251;28;20041;-75
2023/05/21 07:21:35;;;;;;;11.15;9.05;;;15.00;99.90;;;;;;5009117;28;20022;-75
2023/05/21 07:24:03;;;;;;;14.32;10.93;;;15.20;99.90;;;;;;5011712;28;20026;-76
2023/05/21 07:26:28;;;;;;;13.23;9.50;;;15.30;99.90;;;;;;5024167;28;20030;-76
2023/05/21 07:28:56;;;;;;;14.40;9.70;;;15.40;99.90;;;;;;5010627;28;20089;-75
2023/05/21 07:31:22;;;;;;;12.73;9.80;;;15.50;99.90;;;;;;5010209;28;20065;-75
2023/05/21 07:33:50;;;;;;;13.77;10.38;;;15.60;99.90;;;;;;5013418;28;20098;-76
2023/05/21 07:36:15;;;;;;;13.57;10.38;;;15.50;99.90;;;;;;5025789;28;20031;-75
2023/05/21 07:38:42;;;;;;;13.52;10.45;;;15.60;99.90;;;;;;5009713;28;20019;-77
2023/05/21 07:41:08;;;;;;;19.58;11.82;;;15.70;99.90;;;;;;5015608;28;20034;-79
2023/05/21 07:43:35;;;;;;;21.33;10.43;;;15.70;99.90;;;;;;5026399;28;20078;-75
2023/05/21 07:46:01;;;;;;;16.70;11.05;;;15.70;99.90;;;;;;5008177;28;20089;-75
2023/05/21 07:48:27;;;;;;;13.18;9.82;;;15.90;99.90;;;;;;5006731;28;20018;-76
2023/05/21 07:50:56;;;;;;;14.90;12.07;;;16.00;99.90;;;;;;5022283;28;20049;-77
2023/05/21 07:53:22;;;;;;;15.18;11.23;;;16.20;99.90;;;;;;5024601;28;20018;-76
2023/05/21 07:55:48;;;;;;;17.25;12.23;;;16.20;99.90;;;;;;5019250;28;20044;-76
2023/05/21 07:58:18;;;;;;;14.57;11.18;;;16.20;99.90;;;;;;5008606;28;20049;-75
2023/05/21 08:00:46;;;;;;;16.17;10.10;;;16.30;99.90;;;;;;5008766;28;20064;-76
2023/05/21 08:03:15;;;;;;;13.32;10.43;;;16.40;99.90;;;;;;5006085;28;20022;-75
2023/05/21 08:05:48;;;;;;;14.48;11.82;;;16.50;99.90;;;;;;5009145;28;20026;-78
2023/05/21 08:08:17;;;;;;;13.63;10.68;;;16.50;99.90;;;;;;5008793;28;20048;-78
2023/05/21 08:10:44;;;;;;;14.25;11.45;;;16.50;99.90;;;;;;5009758;28;20042;-79
2023/05/21 08:13:14;;;;;;;16.35;12.05;;;16.50;99.90;;;;;;5009787;28;20057;-79
2023/05/21 08:15:42;;;;;;;16.52;12.57;;;16.40;99.90;;;;;;5009221;28;20049;-78
2023/05/21 08:18:07;;;;;;;19.52;12.50;;;16.30;99.90;;;;;;5008729;28;20045;-77
2023/05/21 08:20:33;;;;;;;18.63;14.18;;;16.30;99.90;;;;;;5009979;28;20038;-78
2023/05/21 08:22:59;;;;;;;16.50;13.75;;;16.20;99.90;;;;;;5009871;28;20018;-78
2023/05/21 08:25:28;;;;;;;18.30;12.48;;;16.30;99.90;;;;;;5006730;28;20030;-77
2023/05/21 08:27:54;;;;;;;21.80;12.68;;;16.50;99.90;;;;;;5009107;28;20054;-79
2023/05/21 08:30:20;;;;;;;14.95;12.98;;;16.40;99.90;;;;;;5009910;28;20046;-78
2023/05/21 08:32:49;;;;;;;17.88;14.57;;;16.40;99.90;;;;;;5015503;28;20030;-80
2023/05/21 08:35:18;;;;;;;19.60;14.07;;;16.30;99.90;;;;;;5026674;28;20017;-79
2023/05/21 08:37:46;;;;;;;18.42;13.13;;;16.40;99.90;;;;;;5011019;28;20045;-80
2023/05/21 08:40:15;;;;;;;16.42;13.55;;;16.50;99.90;;;;;;5008745;28;20026;-79
2023/05/21 08:42:46;;;;;;;20.70;13.52;;;16.60;99.90;;;;;;5009075;28;20026;-78
2023/05/21 08:45:13;;;;;;;16.42;12.88;;;16.70;99.90;;;;;;5025099;28;20033;-78
2023/05/21 08:47:45;;;;;;;18.92;12.57;;;16.70;99.90;;;;;;5010597;28;20034;-78
2023/05/21 08:50:18;;;;;;;20.57;13.37;;;16.90;99.90;;;;;;5007957;28;20042;-74
2023/05/21 08:52:44;;;;;;;16.83;13.02;;;17.00;99.90;;;;;;5022211;28;20273;-75
2023/05/21 08:55:09;;;;;;;18.75;12.80;;;17.00;99.90;;;;;;5005593;28;20049;-75
2023/05/21 08:57:41;;;;;;;15.40;11.65;;;16.90;99.90;;;;;;5005504;28;20026;-75
2023/05/21 09:00:10;;;;;;;15.73;12.50;;;17.10;99.90;;;;;;5005292;28;20058;-76
2023/05/21 09:02:39;;;;;;;20.65;12.13;;;17.10;99.90;;;;;;5007461;28;20038;-75
2023/05/21 09:05:08;;;;;;;16.25;11.90;;;17.20;99.90;;;;;;5005003;28;20018;-75
2023/05/21 09:07:41;;;;;;;15.55;11.32;;;17.20;99.90;;;;;;5006594;28;20026;-75
2023/05/21 09:10:11;;;;;;;16.42;11.55;;;17.30;99.90;;;;;;5010924;28;20069;-74
2023/05/21 09:12:37;;;;;;;13.85;10.85;;;17.40;99.90;;;;;;5009092;28;20030;-74
2023/05/21 09:15:03;;;;;;;16.15;10.57;;;17.50;99.90;;;;;;5007251;28;20111;-74
2023/05/21 09:17:29;;;;;;;23.73;12.25;;;17.60;99.90;;;;;;5022168;28;20297;-76
2023/05/21 09:20:09;;;;;;;13.98;10.57;;;17.60;99.90;;;;;;5009994;28;20022;-76
2023/05/21 09:22:46;;;;;;;14.40;10.73;;;17.60;99.90;;;;;;5018614;28;20029;-75
2023/05/21 09:25:17;;;;;;;14.38;10.85;;;17.60;99.90;;;;;;5020868;28;20057;-74
2023/05/21 09:27:45;;;;;;;15.90;10.23;;;17.70;99.90;;;;;;5020383;28;20050;-75
2023/05/21 09:30:16;;;;;;;15.80;11.75;;;17.70;99.90;;;;;;5009882;28;20027;-74
2023/05/21 09:32:46;;;;;;;18.05;12.90;;;17.80;99.90;;;;;;5003015;28;20028;-75
2023/05/21 09:35:13;;;;;;;17.25;11.55;;;17.70;99.90;;;;;;5017864;28;20030;-76
2023/05/21 09:37:44;;;;;;;14.95;12.65;;;17.80;99.90;;;;;;5007099;28;20034;-79
2023/05/21 09:40:14;;;;;;;17.67;11.93;;;17.80;99.90;;;;;;5007783;28;20045;-78
2023/05/21 09:43:00;;;;;;;16.38;11.02;;;18.00;99.90;;;;;;5008698;28;20022;-78
2023/05/21 09:45:26;;;;;;;17.55;11.52;;;18.10;99.90;;;;;;5006682;28;20065;-79
2023/05/21 09:47:57;;;;;;;14.27;11.30;;;18.20;99.90;;;;;;5022749;28;20033;-79
2023/05/21 09:50:24;;;;;;;15.77;11.32;;;18.40;99.90;;;;;;5010280;28;20069;-80
2023/05/21 09:52:57;;;;;;;19.83;11.77;;;18.50;99.90;;;;;;5009118;28;20041;-79
2023/05/21 09:55:23;;;;;;;14.18;11.38;;;18.50;99.90;;;;;;5006690;28;20019;-79
2023/05/21 09:57:50;;;;;;;15.43;11.45;;;18.50;99.90;;;;;;5008538;28;20088;-80
2023/05/21 10:00:21;;;;;;;16.25;11.52;;;18.60;99.90;;;;;;5024237;28;20019;-79
2023/05/21 10:02:56;;;;;;;14.73;11.00;;;18.60;99.90;;;;;;5008920;28;20045;-79
2023/05/21 10:05:31;;;;;;;15.07;11.50;;;18.60;99.90;;;;;;5010078;28;20042;-80
2023/05/21 10:08:00;;;;;;;15.07;11.77;;;18.80;99.90;;;;;;5009825;28;20037;-80
2023/05/21 10:10:28;;;;;;;14.52;10.57;;;18.90;99.90;;;;;;5015178;28;20030;-79
2023/05/21 10:12:59;;;;;;;15.93;11.60;;;19.10;99.90;;;;;;5009753;28;20142;-79
2023/05/21 10:15:29;;;;;;;15.63;11.38;;;19.00;99.90;;;;;;5025044;28;20031;-79
2023/05/21 10:17:55;;;;;;;16.38;10.65;;;19.10;99.90;;;;;;5009359;28;20046;-79
2023/05/21 10:20:21;;;;;;;13.77;11.52;;;19.20;99.90;;;;;;5009965;28;20109;-78
2023/05/21 10:22:53;;;;;;;17.73;12.02;;;19.30;99.90;;;;;;5004343;28;20042;-79
2023/05/21 10:25:21;;;;;;;16.35;12.38;;;19.30;99.90;;;;;;5006503;28;20010;-78
2023/05/21 10:27:47;;;;;;;18.25;11.60;;;19.30;99.90;;;;;;5008333;28;20097;-77
2023/05/21 10:30:13;;;;;;;16.30;11.00;;;19.30;99.90;;;;;;5023848;28;20094;-78
2023/05/21 10:32:40;;;;;;;14.50;11.80;;;19.30;99.90;;;;;;5007684;28;20119;-78
2023/05/21 10:35:07;;;;;;;16.77;11.25;;;19.30;99.90;;;;;;5026156;28;20017;-78
2023/05/21 10:37:35;;;;;;;15.40;11.90;;;19.40;99.90;;;;;;5007169;28;20037;-79
2023/05/21 10:40:28;;;;;;;18.63;11.93;;;19.50;99.90;;;;;;5022001;28;20014;-79
2023/05/21 10:43:29;;;;;;;17.63;13.00;;;19.50;99.90;;;;;;4998253;28;20018;-78
2023/05/21 10:46:33;;;;;;;15.60;12.50;;;19.60;99.90;;;;;;5024222;28;20026;-78
2023/05/21 10:49:36;;;;;;;16.80;11.05;;;19.70;99.90;;;;;;5012473;28;20022;-79
2023/05/21 10:52:08;;;;;;;14.32;11.68;;;19.60;99.90;;;;;;5006629;28;20041;-78
2023/05/21 10:54:59;;;;;;;19.10;12.60;;;19.50;99.90;;;;;;5018330;28;20018;-78
2023/05/21 10:57:39;;;;;;;15.52;10.90;;;19.50;99.90;;;;;;5021871;28;20034;-77
2023/05/21 11:00:08;;;;;;;19.63;11.15;;;19.50;99.90;;;;;;5006414;28;20034;-76
2023/05/21 11:02:34;;;;;;;12.73;10.93;;;19.60;99.90;;;;;;5021562;28;20029;-77
2023/05/21 11:05:02;;;;;;;15.27;11.85;;;19.60;99.90;;;;;;5003958;28;20094;-75
2023/05/21 11:08:00;;;;;;;16.15;11.10;;;19.70;99.90;;;;;;5005874;28;20014;-75
2023/05/21 11:10:38;;;;;;;18.80;12.05;;;19.80;99.90;;;;;;5006258;28;20033;-75
2023/05/21 11:13:11;;;;;;;16.35;12.25;;;19.90;99.90;;;;;;5007047;28;20077;-75
2023/05/21 11:16:00;;;;;;;12.38;10.70;;;19.90;99.90;;;;;;5006159;28;20023;-76
2023/05/21 11:18:34;;;;;;;17.77;12.57;;;19.90;99.90;;;;;;5005779;28;20017;-75
2023/05/21 11:21:10;;;;;;;14.68;11.95;;;20.10;99.90;;;;;;5008430;28;20026;-75
2023/05/21 11:24:01;;;;;;;15.55;11.57;;;20.20;99.90;;;;;;5018649;28;20022;-75
2023/05/21 11:26:51;;;;;;;15.20;12.00;;;20.30;99.90;;;;;;5006381;28;20057;-75
2023/05/21 11:29:18;;;;;;;17.27;13.38;;;20.50;99.90;;;;;;5018200;28;20065;-77
2023/05/21 11:31:57;;;;;;;17.15;12.20;;;20.60;99.90;;;;;;4996843;28;20031;-80
2023/05/21 11:34:27;;;;;;;13.15;10.60;;;20.70;99.90;;;;;;4990727;28;20030;-81
2023/05/21 11:37:39;;;;;;;14.48;12.20;;;20.70;99.90;;;;;;4987603;28;20026;-79
2023/05/21 11:40:24;;;;;;;15.23;11.27;;;20.80;99.90;;;;;;5000267;28;20482;-80
2023/05/21 11:42:52;;;;;;;14.50;10.88;;;20.90;99.90;;;;;;4990663;28;20471;-78
2023/05/21 11:45:19;;;;;;;14.70;10.40;;;20.90;99.90;;;;;;4984534;28;21633;-82
2023/05/21 11:47:47;;;;;;;13.52;11.27;;;21.00;99.90;;;;;;4983463;28;20034;-82
2023/05/21 11:50:16;;;;;;;15.65;11.13;;;21.10;99.90;;;;;;4998725;28;20037;-83
2023/05/21 11:52:43;;;;;;;13.52;11.18;;;21.20;99.90;;;;;;4985059;28;20122;-82
2023/05/21 11:55:10;;;;;;;17.10;11.95;;;21.30;99.90;;;;;;4984411;28;20026;-80
2023/05/21 11:57:36;;;;;;;16.73;11.85;;;21.20;99.90;;;;;;5008365;28;20109;-79
2023/05/21 12:00:12;;;;;;;15.35;11.23;;;21.10;99.90;;;;;;4993666;28;20049;-78
2023/05/21 12:02:43;;;;;;;15.43;12.45;;;21.10;99.90;;;;;;4997532;28;20129;-79
2023/05/21 12:05:11;;;;;;;16.05;12.93;;;21.10;99.90;;;;;;4990504;28;20112;-79
2023/05/21 12:07:39;;;;;;;13.23;10.82;;;21.20;99.90;;;;;;4990027;28;20367;-81
2023/05/21 12:10:05;;;;;;;16.30;11.40;;;21.30;99.90;;;;;;5005396;28;20575;-79
2023/05/21 12:12:31;;;;;;;15.27;12.18;;;21.20;99.90;;;;;;5000946;28;20047;-76
2023/05/21 12:14:57;;;;;;;17.13;12.98;;;21.30;99.90;;;;;;5009845;28;20382;-75
2023/05/21 12:17:27;;;;;;;15.30;12.32;;;21.30;99.90;;;;;;5002170;28;20042;-77
2023/05/21 12:19:55;;;;;;;14.30;11.50;;;21.30;99.90;;;;;;5005898;28;20109;-80
2023/05/21 12:22:23;;;;;;;14.65;11.57;;;21.50;99.90;;;;;;4990786;28;20034;-78
2023/05/21 12:24:49;;;;;;;15.05;11.52;;;21.50;99.90;;;;;;5007408;28;20087;-77
2023/05/21 12:27:15;;;;;;;13.85;11.57;;;21.60;99.90;;;;;;4989748;28;20033;-77
2023/05/21 12:29:47;;;;;;;12.85;10.48;;;21.60;99.90;;;;;;5005706;28;20045;-81
2023/05/21 12:32:14;;;;;;;11.27;9.98;;;21.60;99.90;;;;;;5002692;28;20096;-82
2023/05/21 12:34:53;;;;;;;17.30;12.88;;;21.70;99.90;;;;;;5005009;28;20042;-81